PGT6RA LTFJ-URWW
Flight info
| Callsign | PGT6RA |
|---|---|
| Flight time | 2h 20m |
| Altitude | 35000 |
| Route | BKZ UN644 SIN UW96 ODIRA/K0861F350 G487 KEPOL G901 INDIM/K0863F360 G901 GAMTU GAMTU2G |
| Aircraft | B738/M-SDE2E3FGHIRWXY/LB1 |
Departure
| Time | 2026-05-07 15:20 |
|---|---|
| Airport | Istanbul Sabiha Gökçen International Airport (LTFJ) |
Arrival
| Time | 2026-05-07 17:40 |
|---|---|
| Airport | Volgograd International Airport (URWW) |
| Time | Latitude | Longitude | Altitude | Speed | Heading |
|---|---|---|---|---|---|
| 2026-05-07 14:47 | 40.90437 | 29.31633 | 310 ft | 0 kts | 154° |
| 2026-05-07 15:09 | 40.90441 | 29.31630 | 310 ft | 2 kts | 154° |
| 2026-05-07 15:09 | 40.90456 | 29.31621 | 309 ft | 2 kts | 154° |
| 2026-05-07 15:10 | 40.90471 | 29.31611 | 309 ft | 2 kts | 154° |
| 2026-05-07 15:10 | 40.90485 | 29.31602 | 308 ft | 2 kts | 154° |
| 2026-05-07 15:10 | 40.90500 | 29.31593 | 310 ft | 2 kts | 158° |
| 2026-05-07 15:10 | 40.90516 | 29.31588 | 309 ft | 2 kts | 201° |
| 2026-05-07 15:11 | 40.90524 | 29.31595 | 308 ft | 1 kts | 244° |
| 2026-05-07 15:11 | 40.90525 | 29.31598 | 308 ft | 0 kts | 246° |
| 2026-05-07 15:13 | 40.90523 | 29.31593 | 308 ft | 2 kts | 242° |
| 2026-05-07 15:13 | 40.90510 | 29.31563 | 309 ft | 5 kts | 240° |
| 2026-05-07 15:13 | 40.90495 | 29.31528 | 309 ft | 4 kts | 236° |
| 2026-05-07 15:14 | 40.90476 | 29.31496 | 310 ft | 4 kts | 234° |
| 2026-05-07 15:14 | 40.90459 | 29.31463 | 310 ft | 4 kts | 233° |
| 2026-05-07 15:14 | 40.90433 | 29.31438 | 310 ft | 6 kts | 200° |
| 2026-05-07 15:14 | 40.90385 | 29.31454 | 310 ft | 8 kts | 154° |
| 2026-05-07 15:15 | 40.90333 | 29.31489 | 310 ft | 9 kts | 153° |
| 2026-05-07 15:15 | 40.90291 | 29.31526 | 310 ft | 1 kts | 122° |
| 2026-05-07 15:15 | 40.90295 | 29.31553 | 310 ft | 5 kts | 60° |
| 2026-05-07 15:15 | 40.90320 | 29.31613 | 310 ft | 10 kts | 63° |
| 2026-05-07 15:16 | 40.90351 | 29.31695 | 310 ft | 10 kts | 65° |
| 2026-05-07 15:16 | 40.90383 | 29.31783 | 310 ft | 14 kts | 64° |
| 2026-05-07 15:16 | 40.90435 | 29.31923 | 310 ft | 18 kts | 64° |
| 2026-05-07 15:16 | 40.90487 | 29.32068 | 310 ft | 18 kts | 64° |
| 2026-05-07 15:17 | 40.90544 | 29.32222 | 310 ft | 18 kts | 64° |
| 2026-05-07 15:17 | 40.90587 | 29.32374 | 310 ft | 18 kts | 94° |
| 2026-05-07 15:17 | 40.90500 | 29.32473 | 311 ft | 17 kts | 163° |
| 2026-05-07 15:17 | 40.90419 | 29.32451 | 312 ft | 10 kts | 237° |
| 2026-05-07 15:18 | 40.90410 | 29.32428 | 311 ft | 1 kts | 242° |
| 2026-05-07 15:18 | 40.90406 | 29.32417 | 311 ft | 1 kts | 242° |
| 2026-05-07 15:18 | 40.90401 | 29.32407 | 311 ft | 1 kts | 242° |
| 2026-05-07 15:18 | 40.90398 | 29.32398 | 310 ft | 1 kts | 242° |
| 2026-05-07 15:19 | 40.90381 | 29.32354 | 312 ft | 17 kts | 243° |
| 2026-05-07 15:19 | 40.90229 | 29.31945 | 312 ft | 86 kts | 244° |
| 2026-05-07 15:19 | 40.89866 | 29.30963 | 309 ft | 149 kts | 244° |
| 2026-05-07 15:19 | 40.89357 | 29.29560 | 571 ft | 181 kts | 244° |
| 2026-05-07 15:20 | 40.88805 | 29.28105 | 1517 ft | 177 kts | 242° |
| 2026-05-07 15:20 | 40.88209 | 29.26679 | 2329 ft | 185 kts | 245° |
| 2026-05-07 15:20 | 40.87617 | 29.25051 | 2523 ft | 206 kts | 246° |
| 2026-05-07 15:20 | 40.86972 | 29.23265 | 2718 ft | 221 kts | 246° |
| 2026-05-07 15:21 | 40.86083 | 29.21559 | 2998 ft | 233 kts | 223° |
| 2026-05-07 15:21 | 40.84609 | 29.20501 | 3166 ft | 256 kts | 199° |
| 2026-05-07 15:21 | 40.82790 | 29.20294 | 3634 ft | 270 kts | 173° |
| 2026-05-07 15:21 | 40.81054 | 29.21281 | 4241 ft | 278 kts | 143° |
| 2026-05-07 15:22 | 40.79746 | 29.23144 | 4817 ft | 284 kts | 126° |
| 2026-05-07 15:22 | 40.78772 | 29.25441 | 4980 ft | 285 kts | 116° |
| 2026-05-07 15:22 | 40.78051 | 29.27857 | 4994 ft | 286 kts | 108° |
| 2026-05-07 15:22 | 40.77583 | 29.30422 | 5005 ft | 287 kts | 99° |
| 2026-05-07 15:23 | 40.77433 | 29.32165 | 5003 ft | 288 kts | 93° |
| 2026-05-07 15:23 | 40.77457 | 29.34807 | 5002 ft | 288 kts | 84° |
| 2026-05-07 15:23 | 40.77780 | 29.37421 | 5011 ft | 287 kts | 75° |
| 2026-05-07 15:23 | 40.78382 | 29.39887 | 5200 ft | 282 kts | 66° |
| 2026-05-07 15:24 | 40.79248 | 29.42207 | 5641 ft | 282 kts | 57° |
| 2026-05-07 15:24 | 40.80364 | 29.44345 | 6165 ft | 286 kts | 48° |
| 2026-05-07 15:24 | 40.81716 | 29.46255 | 6838 ft | 284 kts | 39° |
| 2026-05-07 15:24 | 40.83309 | 29.47751 | 7454 ft | 279 kts | 17° |
| 2026-05-07 15:25 | 40.85211 | 29.48076 | 8040 ft | 275 kts | 357° |
| 2026-05-07 15:25 | 40.87072 | 29.48043 | 8998 ft | 262 kts | 355° |
| 2026-05-07 15:25 | 40.88856 | 29.47719 | 9716 ft | 263 kts | 343° |
| 2026-05-07 15:25 | 40.90692 | 29.46890 | 9612 ft | 293 kts | 335° |
| 2026-05-07 15:26 | 40.92488 | 29.45673 | 10409 ft | 283 kts | 326° |
| 2026-05-07 15:26 | 40.94005 | 29.44084 | 11365 ft | 277 kts | 315° |
| 2026-05-07 15:26 | 40.95324 | 29.42128 | 11372 ft | 303 kts | 308° |
| 2026-05-07 15:26 | 40.96695 | 29.39816 | 11252 ft | 332 kts | 308° |
| 2026-05-07 15:27 | 40.98107 | 29.37327 | 11582 ft | 344 kts | 302° |
| 2026-05-07 15:27 | 40.99272 | 29.34444 | 11698 ft | 362 kts | 296° |
| 2026-05-07 15:27 | 41.00365 | 29.31398 | 12017 ft | 372 kts | 296° |
| 2026-05-07 15:27 | 41.01668 | 29.28454 | 12609 ft | 373 kts | 304° |
| 2026-05-07 15:28 | 41.03185 | 29.25660 | 13200 ft | 376 kts | 309° |
| 2026-05-07 15:28 | 41.04978 | 29.23084 | 13635 ft | 383 kts | 319° |
| 2026-05-07 15:28 | 41.07283 | 29.21341 | 14027 ft | 389 kts | 342° |
| 2026-05-07 15:28 | 41.09964 | 29.20780 | 14796 ft | 386 kts | 360° |
| 2026-05-07 15:29 | 41.12606 | 29.21341 | 15424 ft | 391 kts | 17° |
| 2026-05-07 15:29 | 41.15006 | 29.23028 | 15959 ft | 398 kts | 36° |
| 2026-05-07 15:29 | 41.16896 | 29.25775 | 16484 ft | 406 kts | 55° |
| 2026-05-07 15:29 | 41.18000 | 29.29223 | 16999 ft | 415 kts | 76° |
| 2026-05-07 15:30 | 41.18126 | 29.33093 | 17521 ft | 422 kts | 91° |
| 2026-05-07 15:30 | 41.18280 | 29.36939 | 17971 ft | 422 kts | 76° |
| 2026-05-07 15:30 | 41.19032 | 29.40738 | 18476 ft | 423 kts | 71° |
| 2026-05-07 15:30 | 41.19873 | 29.44483 | 18910 ft | 426 kts | 71° |
| 2026-05-07 15:31 | 41.20686 | 29.48261 | 19342 ft | 430 kts | 71° |
| 2026-05-07 15:31 | 41.21462 | 29.52128 | 19778 ft | 433 kts | 72° |
| 2026-05-07 15:31 | 41.22197 | 29.56022 | 20210 ft | 436 kts | 73° |
| 2026-05-07 15:31 | 41.22910 | 29.59953 | 20625 ft | 439 kts | 73° |
| 2026-05-07 15:32 | 41.23613 | 29.63923 | 21039 ft | 442 kts | 73° |
| 2026-05-07 15:32 | 41.24310 | 29.67893 | 21441 ft | 444 kts | 73° |
| 2026-05-07 15:32 | 41.25007 | 29.71872 | 21821 ft | 447 kts | 73° |
| 2026-05-07 15:32 | 41.25717 | 29.75921 | 22192 ft | 450 kts | 72° |
| 2026-05-07 15:33 | 41.26429 | 29.79987 | 22565 ft | 453 kts | 72° |
| 2026-05-07 15:33 | 41.27145 | 29.84077 | 22924 ft | 455 kts | 72° |
| 2026-05-07 15:33 | 41.27864 | 29.88193 | 23283 ft | 458 kts | 72° |
| 2026-05-07 15:33 | 41.28582 | 29.92305 | 23631 ft | 460 kts | 72° |
| 2026-05-07 15:34 | 41.29308 | 29.96477 | 23922 ft | 463 kts | 72° |
| 2026-05-07 15:34 | 41.30029 | 30.00625 | 24221 ft | 465 kts | 72° |
| 2026-05-07 15:34 | 41.30781 | 30.04839 | 24511 ft | 467 kts | 71° |
| 2026-05-07 15:34 | 41.31547 | 30.09048 | 24795 ft | 469 kts | 71° |
| 2026-05-07 15:35 | 41.32313 | 30.13229 | 25077 ft | 471 kts | 71° |
| 2026-05-07 15:35 | 41.33094 | 30.17501 | 25393 ft | 472 kts | 71° |
| 2026-05-07 15:35 | 41.33863 | 30.21735 | 25805 ft | 471 kts | 71° |
| 2026-05-07 15:35 | 41.34630 | 30.25982 | 26250 ft | 469 kts | 71° |
| 2026-05-07 15:36 | 41.35381 | 30.30162 | 26652 ft | 468 kts | 71° |
| 2026-05-07 15:36 | 41.36141 | 30.34397 | 27013 ft | 468 kts | 71° |
| 2026-05-07 15:36 | 41.36891 | 30.38587 | 27380 ft | 468 kts | 71° |
| 2026-05-07 15:36 | 41.37642 | 30.42792 | 27788 ft | 467 kts | 71° |
| 2026-05-07 15:37 | 41.38397 | 30.47028 | 28195 ft | 466 kts | 71° |
| 2026-05-07 15:37 | 41.39137 | 30.51193 | 28579 ft | 466 kts | 71° |
| 2026-05-07 15:37 | 41.39878 | 30.55365 | 28960 ft | 465 kts | 71° |
| 2026-05-07 15:37 | 41.40620 | 30.59560 | 29362 ft | 464 kts | 71° |
| 2026-05-07 15:38 | 41.41361 | 30.63751 | 29687 ft | 466 kts | 71° |
| 2026-05-07 15:38 | 41.42116 | 30.68020 | 29756 ft | 472 kts | 71° |
| 2026-05-07 15:38 | 41.43658 | 30.76615 | 29930 ft | 482 kts | 70° |
| 2026-05-07 15:39 | 41.44490 | 30.80905 | 30114 ft | 484 kts | 69° |
| 2026-05-07 15:39 | 41.45352 | 30.85264 | 30396 ft | 483 kts | 69° |
| 2026-05-07 15:39 | 41.46206 | 30.89587 | 30741 ft | 481 kts | 69° |
| 2026-05-07 15:39 | 41.47041 | 30.93850 | 31126 ft | 477 kts | 69° |
| 2026-05-07 15:40 | 41.47871 | 30.98118 | 31494 ft | 475 kts | 69° |
| 2026-05-07 15:40 | 41.48697 | 31.02397 | 31799 ft | 473 kts | 70° |
| 2026-05-07 15:40 | 41.49509 | 31.06616 | 32065 ft | 473 kts | 70° |
| 2026-05-07 15:40 | 41.50324 | 31.10863 | 32323 ft | 473 kts | 70° |
| 2026-05-07 15:41 | 41.51141 | 31.15133 | 32618 ft | 472 kts | 70° |
| 2026-05-07 15:41 | 41.51951 | 31.19382 | 32917 ft | 470 kts | 70° |
| 2026-05-07 15:41 | 41.52757 | 31.23613 | 33191 ft | 470 kts | 70° |
| 2026-05-07 15:41 | 41.53553 | 31.27793 | 33439 ft | 469 kts | 70° |
| 2026-05-07 15:42 | 41.54355 | 31.32017 | 33692 ft | 469 kts | 70° |
| 2026-05-07 15:42 | 41.55159 | 31.36263 | 33970 ft | 468 kts | 70° |
| 2026-05-07 15:42 | 41.55950 | 31.40475 | 34206 ft | 467 kts | 71° |
| 2026-05-07 15:42 | 41.56727 | 31.44628 | 34407 ft | 467 kts | 71° |
| 2026-05-07 15:43 | 41.57512 | 31.48833 | 34625 ft | 466 kts | 71° |
| 2026-05-07 15:43 | 41.58294 | 31.53036 | 34879 ft | 464 kts | 71° |
| 2026-05-07 15:43 | 41.59072 | 31.57224 | 35104 ft | 463 kts | 71° |
| 2026-05-07 15:43 | 41.59853 | 31.61432 | 35116 ft | 466 kts | 71° |
| 2026-05-07 15:44 | 41.61401 | 31.69794 | 35130 ft | 464 kts | 71° |
| 2026-05-07 15:44 | 41.62941 | 31.78169 | 35130 ft | 461 kts | 71° |
| 2026-05-07 15:45 | 41.64454 | 31.86424 | 35131 ft | 458 kts | 71° |
| 2026-05-07 15:45 | 41.65968 | 31.94713 | 35128 ft | 456 kts | 71° |
| 2026-05-07 15:46 | 41.68213 | 32.07072 | 35135 ft | 456 kts | 71° |
| 2026-05-07 15:47 | 41.69700 | 32.15310 | 35145 ft | 457 kts | 71° |
| 2026-05-07 15:47 | 41.71192 | 32.23601 | 35138 ft | 459 kts | 71° |
| 2026-05-07 15:48 | 41.72672 | 32.31899 | 35148 ft | 462 kts | 71° |
| 2026-05-07 15:48 | 41.74093 | 32.40301 | 35145 ft | 465 kts | 72° |
| 2026-05-07 15:49 | 41.75498 | 32.48765 | 35137 ft | 466 kts | 72° |
| 2026-05-07 15:49 | 41.76909 | 32.57262 | 35138 ft | 468 kts | 72° |
| 2026-05-07 15:50 | 41.78316 | 32.65741 | 35143 ft | 467 kts | 72° |
| 2026-05-07 15:50 | 41.79725 | 32.74268 | 35133 ft | 465 kts | 72° |
| 2026-05-07 15:51 | 41.81114 | 32.82707 | 35142 ft | 463 kts | 72° |
| 2026-05-07 15:51 | 41.82487 | 32.91092 | 35141 ft | 462 kts | 72° |
| 2026-05-07 15:52 | 41.83858 | 32.99507 | 35129 ft | 460 kts | 73° |
| 2026-05-07 15:52 | 41.85211 | 33.07865 | 35140 ft | 459 kts | 73° |
| 2026-05-07 15:53 | 41.86556 | 33.16267 | 35147 ft | 459 kts | 73° |
| 2026-05-07 15:53 | 41.87884 | 33.24600 | 35137 ft | 459 kts | 73° |
| 2026-05-07 15:54 | 41.89218 | 33.32997 | 35141 ft | 458 kts | 73° |
| 2026-05-07 15:54 | 41.90536 | 33.41343 | 35351 ft | 461 kts | 73° |
| 2026-05-07 15:54 | 41.91195 | 33.45545 | 35510 ft | 461 kts | 73° |
| 2026-05-07 15:55 | 41.91837 | 33.49777 | 35665 ft | 463 kts | 78° |
| 2026-05-07 15:55 | 41.91971 | 33.54157 | 35782 ft | 472 kts | 90° |
| 2026-05-07 15:55 | 41.91606 | 33.58513 | 36008 ft | 472 kts | 94° |
| 2026-05-07 15:55 | 41.91405 | 33.62875 | 36203 ft | 466 kts | 83° |
| 2026-05-07 15:56 | 41.91783 | 33.67184 | 36350 ft | 462 kts | 75° |
| 2026-05-07 15:56 | 41.92444 | 33.71371 | 36487 ft | 460 kts | 71° |
| 2026-05-07 15:56 | 41.93327 | 33.75475 | 36623 ft | 458 kts | 68° |
| 2026-05-07 15:56 | 41.94336 | 33.79574 | 36804 ft | 457 kts | 67° |
| 2026-05-07 15:57 | 41.95334 | 33.83603 | 36959 ft | 458 kts | 71° |
| 2026-05-07 15:57 | 41.96018 | 33.87820 | 37114 ft | 461 kts | 77° |
| 2026-05-07 15:57 | 41.96429 | 33.92060 | 37145 ft | 464 kts | 81° |
| 2026-05-07 15:58 | 41.96934 | 34.00729 | 37141 ft | 463 kts | 83° |
| 2026-05-07 15:58 | 41.97333 | 34.09279 | 37146 ft | 453 kts | 83° |
| 2026-05-07 15:59 | 41.97759 | 34.17690 | 37151 ft | 452 kts | 82° |
| 2026-05-07 15:59 | 41.98211 | 34.26142 | 37162 ft | 452 kts | 82° |
| 2026-05-07 16:00 | 41.98662 | 34.34540 | 37155 ft | 452 kts | 82° |
| 2026-05-07 16:00 | 41.99106 | 34.42941 | 37166 ft | 453 kts | 83° |
| 2026-05-07 16:01 | 41.99545 | 34.51411 | 37154 ft | 454 kts | 83° |
| 2026-05-07 16:01 | 41.99979 | 34.59900 | 37159 ft | 455 kts | 83° |
| 2026-05-07 16:02 | 42.00408 | 34.68408 | 37157 ft | 457 kts | 83° |
| 2026-05-07 16:02 | 42.00830 | 34.76912 | 37163 ft | 458 kts | 83° |
| 2026-05-07 16:03 | 42.01249 | 34.85485 | 37162 ft | 459 kts | 83° |
| 2026-05-07 16:03 | 42.01662 | 34.94063 | 37158 ft | 459 kts | 83° |
| 2026-05-07 16:04 | 42.02072 | 35.02634 | 37163 ft | 459 kts | 82° |
| 2026-05-07 16:04 | 42.03494 | 35.10862 | 37175 ft | 450 kts | 64° |
| 2026-05-07 16:05 | 42.06291 | 35.18327 | 37169 ft | 446 kts | 58° |
| 2026-05-07 16:05 | 42.09171 | 35.25680 | 37172 ft | 445 kts | 59° |
| 2026-05-07 16:06 | 42.11999 | 35.33088 | 37168 ft | 444 kts | 59° |
| 2026-05-07 16:06 | 42.14786 | 35.40463 | 37178 ft | 443 kts | 60° |
| 2026-05-07 16:07 | 42.17594 | 35.47865 | 37170 ft | 442 kts | 60° |
| 2026-05-07 16:07 | 42.20389 | 35.55208 | 37178 ft | 441 kts | 60° |
| 2026-05-07 16:08 | 42.23183 | 35.62569 | 37176 ft | 440 kts | 60° |
| 2026-05-07 16:08 | 42.25955 | 35.69896 | 37188 ft | 440 kts | 60° |
| 2026-05-07 16:09 | 42.28738 | 35.77275 | 37182 ft | 440 kts | 60° |
| 2026-05-07 16:09 | 42.31500 | 35.84619 | 37188 ft | 440 kts | 60° |
| 2026-05-07 16:10 | 42.34257 | 35.91966 | 37184 ft | 440 kts | 60° |
| 2026-05-07 16:10 | 42.37014 | 35.99334 | 37189 ft | 440 kts | 61° |
| 2026-05-07 16:11 | 42.39778 | 36.06741 | 37183 ft | 441 kts | 61° |
| 2026-05-07 16:11 | 42.42551 | 36.14190 | 37193 ft | 442 kts | 61° |
| 2026-05-07 16:12 | 42.45301 | 36.21597 | 37185 ft | 442 kts | 61° |
| 2026-05-07 16:12 | 42.47594 | 36.27786 | 37192 ft | 442 kts | 61° |
| 2026-05-07 16:13 | 42.50807 | 36.36485 | 37185 ft | 443 kts | 62° |
| 2026-05-07 16:13 | 42.53560 | 36.43959 | 37192 ft | 443 kts | 62° |
| 2026-05-07 16:14 | 42.56303 | 36.51424 | 37194 ft | 444 kts | 62° |
| 2026-05-07 16:14 | 42.58592 | 36.57670 | 37185 ft | 444 kts | 62° |
| 2026-05-07 16:15 | 42.61344 | 36.65198 | 37183 ft | 444 kts | 62° |
| 2026-05-07 16:15 | 42.64073 | 36.72684 | 37194 ft | 444 kts | 62° |
| 2026-05-07 16:16 | 42.67362 | 36.79718 | 37199 ft | 440 kts | 48° |
| 2026-05-07 16:16 | 42.71406 | 36.85951 | 37201 ft | 440 kts | 47° |
| 2026-05-07 16:17 | 42.75467 | 36.92170 | 37192 ft | 440 kts | 47° |
| 2026-05-07 16:17 | 42.79515 | 36.98463 | 37199 ft | 440 kts | 48° |
| 2026-05-07 16:18 | 42.83537 | 37.04781 | 37194 ft | 441 kts | 48° |
| 2026-05-07 16:18 | 42.87530 | 37.11081 | 37198 ft | 441 kts | 48° |
| 2026-05-07 16:19 | 42.91529 | 37.17404 | 37193 ft | 441 kts | 48° |
| 2026-05-07 16:19 | 42.95548 | 37.23771 | 37198 ft | 441 kts | 48° |
| 2026-05-07 16:20 | 42.99529 | 37.30090 | 37192 ft | 441 kts | 49° |
| 2026-05-07 16:20 | 43.03524 | 37.36445 | 37199 ft | 441 kts | 49° |
| 2026-05-07 16:21 | 43.07515 | 37.42808 | 37193 ft | 441 kts | 49° |
| 2026-05-07 16:21 | 43.11506 | 37.49185 | 37198 ft | 441 kts | 49° |
| 2026-05-07 16:22 | 43.15475 | 37.55540 | 37193 ft | 441 kts | 49° |
| 2026-05-07 16:22 | 43.19465 | 37.61943 | 37197 ft | 440 kts | 49° |
| 2026-05-07 16:23 | 43.23423 | 37.68309 | 37192 ft | 440 kts | 49° |
| 2026-05-07 16:23 | 43.27405 | 37.74728 | 37198 ft | 440 kts | 49° |
| 2026-05-07 16:24 | 43.31346 | 37.81094 | 37191 ft | 439 kts | 49° |
| 2026-05-07 16:24 | 43.35302 | 37.87497 | 37194 ft | 439 kts | 49° |
| 2026-05-07 16:25 | 43.39255 | 37.93912 | 37192 ft | 439 kts | 49° |
| 2026-05-07 16:25 | 43.43176 | 38.00287 | 37196 ft | 438 kts | 50° |
| 2026-05-07 16:26 | 43.47116 | 38.06710 | 37189 ft | 438 kts | 50° |
| 2026-05-07 16:26 | 43.51038 | 38.13115 | 37193 ft | 438 kts | 50° |
| 2026-05-07 16:27 | 43.54964 | 38.19542 | 37200 ft | 442 kts | 50° |
| 2026-05-07 16:27 | 43.58952 | 38.26083 | 37205 ft | 448 kts | 50° |
| 2026-05-07 16:28 | 43.62992 | 38.32728 | 37197 ft | 452 kts | 50° |
| 2026-05-07 16:28 | 43.67037 | 38.39395 | 37195 ft | 455 kts | 50° |
| 2026-05-07 16:29 | 43.71093 | 38.46095 | 37190 ft | 456 kts | 50° |
| 2026-05-07 16:29 | 43.75167 | 38.52842 | 37192 ft | 456 kts | 50° |
| 2026-05-07 16:30 | 43.79216 | 38.59562 | 37188 ft | 454 kts | 50° |
| 2026-05-07 16:30 | 43.83237 | 38.66252 | 37191 ft | 453 kts | 50° |
| 2026-05-07 16:31 | 43.87261 | 38.72962 | 37184 ft | 450 kts | 50° |
| 2026-05-07 16:31 | 43.91255 | 38.79636 | 37090 ft | 449 kts | 50° |
| 2026-05-07 16:32 | 43.95692 | 38.85658 | 36943 ft | 448 kts | 35° |
| 2026-05-07 16:32 | 43.98244 | 38.88065 | 36818 ft | 445 kts | 34° |
| 2026-05-07 16:32 | 44.00839 | 38.90436 | 36670 ft | 441 kts | 34° |
| 2026-05-07 16:32 | 44.03398 | 38.92783 | 36489 ft | 439 kts | 34° |
| 2026-05-07 16:33 | 44.05921 | 38.95132 | 36301 ft | 437 kts | 34° |
| 2026-05-07 16:33 | 44.10954 | 38.99895 | 36189 ft | 437 kts | 35° |
| 2026-05-07 16:34 | 44.15899 | 39.04820 | 36178 ft | 438 kts | 39° |
| 2026-05-07 16:34 | 44.20564 | 39.10256 | 36181 ft | 438 kts | 41° |
| 2026-05-07 16:35 | 44.25181 | 39.15749 | 36176 ft | 437 kts | 41° |
| 2026-05-07 16:35 | 44.29850 | 39.21235 | 36179 ft | 437 kts | 40° |
| 2026-05-07 16:36 | 44.34497 | 39.26665 | 36170 ft | 437 kts | 40° |
| 2026-05-07 16:36 | 44.39165 | 39.32125 | 36170 ft | 437 kts | 41° |
| 2026-05-07 16:37 | 44.43799 | 39.37558 | 36162 ft | 437 kts | 41° |
| 2026-05-07 16:37 | 44.48474 | 39.43055 | 36162 ft | 436 kts | 41° |
| 2026-05-07 16:38 | 44.53111 | 39.48513 | 36161 ft | 436 kts | 40° |
| 2026-05-07 16:38 | 44.57776 | 39.53914 | 36159 ft | 436 kts | 40° |
| 2026-05-07 16:39 | 44.62483 | 39.59335 | 36154 ft | 436 kts | 40° |
| 2026-05-07 16:39 | 44.67162 | 39.64748 | 36154 ft | 436 kts | 40° |
| 2026-05-07 16:40 | 44.71852 | 39.70194 | 36149 ft | 436 kts | 40° |
| 2026-05-07 16:40 | 44.76518 | 39.75627 | 36150 ft | 437 kts | 40° |
| 2026-05-07 16:41 | 44.81205 | 39.81096 | 36148 ft | 437 kts | 40° |
| 2026-05-07 16:41 | 44.85870 | 39.86551 | 36151 ft | 437 kts | 40° |
| 2026-05-07 16:42 | 44.90557 | 39.92041 | 36149 ft | 437 kts | 40° |
| 2026-05-07 16:42 | 44.95211 | 39.97505 | 36154 ft | 437 kts | 40° |
| 2026-05-07 16:43 | 44.99909 | 40.03032 | 36148 ft | 438 kts | 40° |
| 2026-05-07 16:43 | 45.04565 | 40.08523 | 36148 ft | 438 kts | 40° |
| 2026-05-07 16:44 | 45.09258 | 40.14070 | 36144 ft | 438 kts | 40° |
| 2026-05-07 16:44 | 45.13920 | 40.19593 | 36149 ft | 439 kts | 40° |
| 2026-05-07 16:45 | 45.18614 | 40.25166 | 36145 ft | 439 kts | 40° |
| 2026-05-07 16:45 | 45.23292 | 40.30732 | 36148 ft | 439 kts | 40° |
| 2026-05-07 16:46 | 45.27949 | 40.36286 | 36143 ft | 439 kts | 40° |
| 2026-05-07 16:46 | 45.32645 | 40.41872 | 36145 ft | 439 kts | 40° |
| 2026-05-07 16:47 | 45.37359 | 40.47437 | 36145 ft | 440 kts | 40° |
| 2026-05-07 16:47 | 45.42049 | 40.52990 | 36146 ft | 440 kts | 40° |
| 2026-05-07 16:48 | 45.46824 | 40.58540 | 36152 ft | 445 kts | 38° |
| 2026-05-07 16:48 | 45.51827 | 40.63801 | 36147 ft | 449 kts | 36° |
| 2026-05-07 16:49 | 45.56880 | 40.69019 | 36142 ft | 452 kts | 37° |
| 2026-05-07 16:49 | 45.61980 | 40.74346 | 36136 ft | 453 kts | 37° |
| 2026-05-07 16:50 | 45.67063 | 40.79707 | 36134 ft | 452 kts | 37° |
| 2026-05-07 16:50 | 45.72095 | 40.85037 | 36133 ft | 450 kts | 37° |
| 2026-05-07 16:51 | 45.77113 | 40.90365 | 36128 ft | 448 kts | 37° |
| 2026-05-07 16:51 | 45.82110 | 40.95681 | 36129 ft | 446 kts | 37° |
| 2026-05-07 16:52 | 45.87059 | 41.00958 | 36122 ft | 444 kts | 37° |
| 2026-05-07 16:52 | 45.92013 | 41.06253 | 36127 ft | 442 kts | 37° |
| 2026-05-07 16:53 | 45.96946 | 41.11536 | 36126 ft | 441 kts | 37° |
| 2026-05-07 16:53 | 46.01847 | 41.16797 | 36125 ft | 441 kts | 37° |
| 2026-05-07 16:54 | 46.06769 | 41.22093 | 36120 ft | 441 kts | 37° |
| 2026-05-07 16:54 | 46.11678 | 41.27386 | 36122 ft | 442 kts | 37° |
| 2026-05-07 16:55 | 46.16627 | 41.32736 | 36115 ft | 443 kts | 37° |
| 2026-05-07 16:55 | 46.21540 | 41.38060 | 36113 ft | 444 kts | 37° |
| 2026-05-07 16:56 | 46.26500 | 41.43446 | 36107 ft | 445 kts | 37° |
| 2026-05-07 16:56 | 46.33909 | 41.51510 | 36100 ft | 446 kts | 37° |
| 2026-05-07 16:57 | 46.38891 | 41.56937 | 36099 ft | 446 kts | 37° |
| 2026-05-07 16:57 | 46.43829 | 41.62328 | 36098 ft | 447 kts | 38° |
| 2026-05-07 16:58 | 46.48803 | 41.67772 | 36095 ft | 446 kts | 38° |
| 2026-05-07 16:58 | 46.52925 | 41.72294 | 36092 ft | 446 kts | 38° |
| 2026-05-07 16:59 | 46.57860 | 41.77720 | 36086 ft | 446 kts | 38° |
| 2026-05-07 16:59 | 46.62803 | 41.83167 | 36086 ft | 445 kts | 38° |
| 2026-05-07 17:00 | 46.67725 | 41.88605 | 36085 ft | 444 kts | 38° |
| 2026-05-07 17:00 | 46.72665 | 41.94075 | 36078 ft | 444 kts | 38° |
| 2026-05-07 17:01 | 46.77575 | 41.99524 | 36078 ft | 443 kts | 38° |
| 2026-05-07 17:01 | 46.82465 | 42.04949 | 36075 ft | 443 kts | 38° |
| 2026-05-07 17:02 | 46.87363 | 42.10385 | 36067 ft | 442 kts | 38° |
| 2026-05-07 17:02 | 46.92279 | 42.15858 | 36071 ft | 442 kts | 38° |
| 2026-05-07 17:03 | 46.97167 | 42.21314 | 36067 ft | 442 kts | 39° |
| 2026-05-07 17:03 | 47.02038 | 42.26762 | 36057 ft | 441 kts | 39° |
| 2026-05-07 17:04 | 47.06915 | 42.32236 | 36057 ft | 441 kts | 39° |
| 2026-05-07 17:04 | 47.11762 | 42.37695 | 36051 ft | 441 kts | 39° |
| 2026-05-07 17:05 | 47.16636 | 42.43197 | 36051 ft | 440 kts | 39° |
| 2026-05-07 17:05 | 47.21461 | 42.48655 | 36040 ft | 440 kts | 39° |
| 2026-05-07 17:06 | 47.26300 | 42.54143 | 36039 ft | 440 kts | 39° |
| 2026-05-07 17:06 | 47.31149 | 42.59656 | 36032 ft | 439 kts | 39° |
| 2026-05-07 17:07 | 47.35989 | 42.65172 | 36036 ft | 439 kts | 39° |
| 2026-05-07 17:07 | 47.40822 | 42.70692 | 36032 ft | 439 kts | 39° |
| 2026-05-07 17:08 | 47.45652 | 42.76218 | 36026 ft | 440 kts | 39° |
| 2026-05-07 17:08 | 47.50503 | 42.81779 | 36020 ft | 441 kts | 39° |
| 2026-05-07 17:09 | 47.55337 | 42.87334 | 36017 ft | 441 kts | 39° |
| 2026-05-07 17:09 | 47.60181 | 42.92916 | 36019 ft | 442 kts | 39° |
| 2026-05-07 17:10 | 47.65054 | 42.98545 | 36015 ft | 443 kts | 39° |
| 2026-05-07 17:10 | 47.67471 | 43.01345 | 35875 ft | 444 kts | 37° |
| 2026-05-07 17:10 | 47.69901 | 43.04160 | 35716 ft | 448 kts | 37° |
| 2026-05-07 17:11 | 47.72359 | 43.07011 | 35455 ft | 447 kts | 37° |
| 2026-05-07 17:11 | 47.74794 | 43.09838 | 35105 ft | 441 kts | 37° |
| 2026-05-07 17:11 | 47.77207 | 43.12643 | 34745 ft | 437 kts | 37° |
| 2026-05-07 17:11 | 47.79598 | 43.15427 | 34393 ft | 434 kts | 37° |
| 2026-05-07 17:12 | 47.81949 | 43.18174 | 34045 ft | 434 kts | 37° |
| 2026-05-07 17:12 | 47.84326 | 43.20960 | 33637 ft | 433 kts | 37° |
| 2026-05-07 17:12 | 47.86697 | 43.23744 | 33237 ft | 432 kts | 37° |
| 2026-05-07 17:12 | 47.89064 | 43.26527 | 32825 ft | 432 kts | 37° |
| 2026-05-07 17:13 | 47.91402 | 43.29280 | 32444 ft | 432 kts | 37° |
| 2026-05-07 17:13 | 47.93772 | 43.32071 | 32051 ft | 434 kts | 37° |
| 2026-05-07 17:13 | 47.96159 | 43.34887 | 31673 ft | 438 kts | 37° |
| 2026-05-07 17:13 | 47.98553 | 43.37714 | 31298 ft | 438 kts | 37° |
| 2026-05-07 17:14 | 48.00944 | 43.40541 | 30915 ft | 437 kts | 37° |
| 2026-05-07 17:14 | 48.03328 | 43.43364 | 30538 ft | 437 kts | 37° |
| 2026-05-07 17:14 | 48.05676 | 43.46147 | 30185 ft | 436 kts | 37° |
| 2026-05-07 17:14 | 48.08050 | 43.48964 | 29778 ft | 435 kts | 37° |
| 2026-05-07 17:15 | 48.10425 | 43.51786 | 29355 ft | 434 kts | 37° |
| 2026-05-07 17:15 | 48.12798 | 43.54608 | 28930 ft | 435 kts | 37° |
| 2026-05-07 17:15 | 48.15141 | 43.57398 | 28525 ft | 435 kts | 37° |
| 2026-05-07 17:15 | 48.17580 | 43.60108 | 28093 ft | 434 kts | 30° |
| 2026-05-07 17:16 | 48.20293 | 43.62052 | 27705 ft | 433 kts | 19° |
| 2026-05-07 17:16 | 48.23187 | 43.63270 | 27314 ft | 431 kts | 10° |
| 2026-05-07 17:16 | 48.26186 | 43.63677 | 26926 ft | 430 kts | 2° |
| 2026-05-07 17:16 | 48.29150 | 43.63790 | 26544 ft | 428 kts | 2° |
| 2026-05-07 17:17 | 48.32126 | 43.63867 | 26111 ft | 426 kts | 1° |
| 2026-05-07 17:17 | 48.35042 | 43.63944 | 25604 ft | 421 kts | 2° |
| 2026-05-07 17:17 | 48.37961 | 43.64034 | 25110 ft | 414 kts | 2° |
| 2026-05-07 17:17 | 48.40830 | 43.64137 | 24612 ft | 408 kts | 2° |
| 2026-05-07 17:18 | 48.43668 | 43.64251 | 24150 ft | 404 kts | 2° |
| 2026-05-07 17:18 | 48.46427 | 43.64368 | 23684 ft | 400 kts | 2° |
| 2026-05-07 17:18 | 48.49211 | 43.64490 | 23153 ft | 396 kts | 2° |
| 2026-05-07 17:18 | 48.51963 | 43.64613 | 22542 ft | 395 kts | 2° |
| 2026-05-07 17:19 | 48.54707 | 43.64735 | 21939 ft | 392 kts | 2° |
| 2026-05-07 17:19 | 48.57393 | 43.64856 | 21353 ft | 390 kts | 2° |
| 2026-05-07 17:19 | 48.60105 | 43.64977 | 20796 ft | 387 kts | 2° |
| 2026-05-07 17:19 | 48.62797 | 43.65097 | 20264 ft | 384 kts | 2° |
| 2026-05-07 17:20 | 48.65431 | 43.65214 | 19866 ft | 378 kts | 2° |
| 2026-05-07 17:20 | 48.68045 | 43.65330 | 19495 ft | 372 kts | 2° |
| 2026-05-07 17:20 | 48.70616 | 43.65445 | 19125 ft | 366 kts | 2° |
| 2026-05-07 17:20 | 48.73149 | 43.65558 | 18760 ft | 361 kts | 2° |
| 2026-05-07 17:21 | 48.75652 | 43.65670 | 18407 ft | 356 kts | 2° |
| 2026-05-07 17:21 | 48.78092 | 43.65780 | 18042 ft | 351 kts | 2° |
| 2026-05-07 17:21 | 48.80496 | 43.65887 | 17984 ft | 339 kts | 2° |
| 2026-05-07 17:21 | 48.82869 | 43.65994 | 17992 ft | 342 kts | 2° |
| 2026-05-07 17:22 | 48.85252 | 43.66102 | 17996 ft | 348 kts | 2° |
| 2026-05-07 17:22 | 48.87694 | 43.66212 | 17932 ft | 351 kts | 2° |
| 2026-05-07 17:22 | 48.90154 | 43.66323 | 17518 ft | 352 kts | 2° |
| 2026-05-07 17:22 | 48.92566 | 43.66431 | 17126 ft | 349 kts | 2° |
| 2026-05-07 17:23 | 48.95009 | 43.66541 | 16607 ft | 350 kts | 2° |
| 2026-05-07 17:23 | 48.97446 | 43.66651 | 16094 ft | 349 kts | 2° |
| 2026-05-07 17:23 | 48.99844 | 43.66759 | 15603 ft | 347 kts | 2° |
| 2026-05-07 17:23 | 49.02269 | 43.66868 | 15185 ft | 346 kts | 4° |
| 2026-05-07 17:24 | 49.04674 | 43.66977 | 14704 ft | 345 kts | 3° |
| 2026-05-07 17:24 | 49.07044 | 43.67085 | 14335 ft | 341 kts | 3° |
| 2026-05-07 17:24 | 49.09405 | 43.67192 | 13972 ft | 336 kts | 3° |
| 2026-05-07 17:24 | 49.11729 | 43.67297 | 13595 ft | 332 kts | 3° |
| 2026-05-07 17:25 | 49.14030 | 43.67402 | 13297 ft | 325 kts | 3° |
| 2026-05-07 17:25 | 49.16279 | 43.67504 | 13015 ft | 318 kts | 3° |
| 2026-05-07 17:25 | 49.18440 | 43.67602 | 12784 ft | 311 kts | 3° |
| 2026-05-07 17:25 | 49.20539 | 43.68125 | 12544 ft | 303 kts | 22° |
| 2026-05-07 17:26 | 49.22306 | 43.69791 | 12360 ft | 295 kts | 42° |
| 2026-05-07 17:26 | 49.23535 | 43.72253 | 12234 ft | 289 kts | 61° |
| 2026-05-07 17:26 | 49.24170 | 43.75111 | 12016 ft | 287 kts | 77° |
| 2026-05-07 17:26 | 49.24210 | 43.78179 | 11645 ft | 292 kts | 95° |
| 2026-05-07 17:27 | 49.23783 | 43.81240 | 11294 ft | 294 kts | 100° |
| 2026-05-07 17:27 | 49.23278 | 43.84244 | 10954 ft | 294 kts | 101° |
| 2026-05-07 17:27 | 49.22750 | 43.87281 | 10610 ft | 294 kts | 101° |
| 2026-05-07 17:27 | 49.22228 | 43.90298 | 10312 ft | 293 kts | 101° |
| 2026-05-07 17:28 | 49.21711 | 43.93314 | 10010 ft | 292 kts | 101° |
| 2026-05-07 17:28 | 49.21205 | 43.96297 | 9668 ft | 291 kts | 101° |
| 2026-05-07 17:28 | 49.20699 | 43.99294 | 9333 ft | 290 kts | 101° |
| 2026-05-07 17:28 | 49.20196 | 44.02278 | 9025 ft | 289 kts | 101° |
| 2026-05-07 17:29 | 49.19696 | 44.05253 | 8645 ft | 287 kts | 101° |
| 2026-05-07 17:29 | 49.19206 | 44.08166 | 8384 ft | 284 kts | 101° |
| 2026-05-07 17:29 | 49.18715 | 44.11079 | 8131 ft | 281 kts | 102° |
| 2026-05-07 17:29 | 49.18228 | 44.13968 | 7880 ft | 278 kts | 101° |
| 2026-05-07 17:30 | 49.17745 | 44.16835 | 7625 ft | 276 kts | 101° |
| 2026-05-07 17:30 | 49.17273 | 44.19632 | 7380 ft | 273 kts | 101° |
| 2026-05-07 17:30 | 49.16798 | 44.22438 | 7157 ft | 270 kts | 101° |
| 2026-05-07 17:30 | 49.16329 | 44.25204 | 6954 ft | 266 kts | 102° |
| 2026-05-07 17:31 | 49.15874 | 44.27878 | 6801 ft | 257 kts | 101° |
| 2026-05-07 17:31 | 49.15430 | 44.30481 | 6597 ft | 248 kts | 101° |
| 2026-05-07 17:31 | 49.14701 | 44.32853 | 6365 ft | 249 kts | 130° |
| 2026-05-07 17:31 | 49.13356 | 44.34435 | 6186 ft | 244 kts | 148° |
| 2026-05-07 17:32 | 49.11877 | 44.35626 | 5968 ft | 237 kts | 152° |
| 2026-05-07 17:32 | 49.10416 | 44.36723 | 5755 ft | 230 kts | 153° |
| 2026-05-07 17:32 | 49.08997 | 44.37787 | 5551 ft | 226 kts | 152° |
| 2026-05-07 17:32 | 49.08063 | 44.38492 | 5421 ft | 227 kts | 152° |
| 2026-05-07 17:33 | 49.06201 | 44.39911 | 5155 ft | 223 kts | 152° |
| 2026-05-07 17:33 | 49.04821 | 44.40970 | 4949 ft | 219 kts | 152° |
| 2026-05-07 17:33 | 49.03476 | 44.42006 | 4763 ft | 219 kts | 152° |
| 2026-05-07 17:33 | 49.02117 | 44.43056 | 4564 ft | 218 kts | 152° |
| 2026-05-07 17:34 | 49.00763 | 44.44103 | 4365 ft | 218 kts | 152° |
| 2026-05-07 17:34 | 48.99424 | 44.45140 | 4171 ft | 217 kts | 152° |
| 2026-05-07 17:34 | 48.98077 | 44.46184 | 3974 ft | 217 kts | 152° |
| 2026-05-07 17:34 | 48.96724 | 44.47230 | 3776 ft | 216 kts | 152° |
| 2026-05-07 17:35 | 48.95400 | 44.48254 | 3606 ft | 214 kts | 153° |
| 2026-05-07 17:35 | 48.94075 | 44.49277 | 3457 ft | 211 kts | 153° |
| 2026-05-07 17:35 | 48.92751 | 44.50250 | 3314 ft | 211 kts | 154° |
| 2026-05-07 17:35 | 48.91435 | 44.51201 | 3177 ft | 213 kts | 154° |
| 2026-05-07 17:36 | 48.90093 | 44.52170 | 3034 ft | 214 kts | 154° |
| 2026-05-07 17:36 | 48.88737 | 44.53149 | 2886 ft | 214 kts | 154° |
| 2026-05-07 17:36 | 48.87403 | 44.54113 | 2732 ft | 211 kts | 155° |
| 2026-05-07 17:36 | 48.86004 | 44.54562 | 2590 ft | 208 kts | 193° |
| 2026-05-07 17:37 | 48.84810 | 44.53480 | 2620 ft | 202 kts | 232° |
| 2026-05-07 17:37 | 48.83979 | 44.51747 | 2603 ft | 204 kts | 239° |
| 2026-05-07 17:37 | 48.83237 | 44.49901 | 2526 ft | 205 kts | 244° |
| 2026-05-07 17:37 | 48.82597 | 44.47981 | 2314 ft | 204 kts | 246° |
| 2026-05-07 17:38 | 48.81995 | 44.46074 | 2047 ft | 194 kts | 246° |
| 2026-05-07 17:38 | 48.81428 | 44.44285 | 1793 ft | 183 kts | 246° |
| 2026-05-07 17:38 | 48.80893 | 44.42602 | 1570 ft | 170 kts | 246° |
| 2026-05-07 17:38 | 48.80405 | 44.41066 | 1339 ft | 154 kts | 246° |
| 2026-05-07 17:39 | 48.79954 | 44.39641 | 1160 ft | 151 kts | 245° |
| 2026-05-07 17:39 | 48.79496 | 44.38197 | 949 ft | 149 kts | 245° |
| 2026-05-07 17:39 | 48.79049 | 44.36785 | 689 ft | 148 kts | 245° |
| 2026-05-07 17:39 | 48.78612 | 44.35417 | 484 ft | 143 kts | 245° |
| 2026-05-07 17:40 | 48.78210 | 44.34137 | 439 ft | 110 kts | 244° |
| 2026-05-07 17:40 | 48.77972 | 44.33388 | 451 ft | 48 kts | 244° |
| 2026-05-07 17:40 | 48.77870 | 44.33069 | 458 ft | 37 kts | 244° |
| 2026-05-07 17:40 | 48.77728 | 44.32620 | 468 ft | 55 kts | 244° |
| 2026-05-07 17:41 | 48.77582 | 44.32165 | 470 ft | 44 kts | 244° |
| 2026-05-07 17:41 | 48.77540 | 44.31867 | 480 ft | 16 kts | 290° |
| 2026-05-07 17:41 | 48.77606 | 44.31811 | 478 ft | 7 kts | 18° |
| 2026-05-07 17:41 | 48.77651 | 44.31846 | 477 ft | 7 kts | 28° |
| 2026-05-07 17:42 | 48.77692 | 44.31931 | 477 ft | 12 kts | 67° |
| 2026-05-07 17:42 | 48.77730 | 44.32051 | 472 ft | 13 kts | 59° |
| 2026-05-07 17:42 | 48.77770 | 44.32168 | 470 ft | 12 kts | 64° |
| 2026-05-07 17:42 | 48.77807 | 44.32284 | 471 ft | 12 kts | 64° |
| 2026-05-07 17:43 | 48.77843 | 44.32403 | 469 ft | 13 kts | 66° |
| 2026-05-07 17:43 | 48.77885 | 44.32539 | 466 ft | 16 kts | 65° |
| 2026-05-07 17:43 | 48.77936 | 44.32704 | 463 ft | 18 kts | 65° |
| 2026-05-07 17:43 | 48.77991 | 44.32876 | 460 ft | 18 kts | 63° |
| 2026-05-07 17:44 | 48.78046 | 44.33042 | 457 ft | 17 kts | 64° |
| 2026-05-07 17:44 | 48.78104 | 44.33228 | 453 ft | 21 kts | 64° |
| 2026-05-07 17:44 | 48.78168 | 44.33432 | 449 ft | 21 kts | 65° |
| 2026-05-07 17:44 | 48.78231 | 44.33635 | 441 ft | 21 kts | 65° |
| 2026-05-07 17:45 | 48.78271 | 44.33766 | 435 ft | 20 kts | 65° |
| 2026-05-07 17:45 | 48.78333 | 44.33957 | 435 ft | 20 kts | 63° |
| 2026-05-07 17:45 | 48.78365 | 44.34053 | 431 ft | 9 kts | 64° |
| 2026-05-07 17:45 | 48.78413 | 44.34180 | 432 ft | 12 kts | 40° |
| 2026-05-07 17:46 | 48.78468 | 44.34191 | 428 ft | 12 kts | 350° |
| 2026-05-07 17:46 | 48.78551 | 44.34161 | 427 ft | 12 kts | 343° |
| 2026-05-07 17:46 | 48.78633 | 44.34154 | 426 ft | 12 kts | 32° |
| 2026-05-07 17:46 | 48.78674 | 44.34264 | 423 ft | 12 kts | 67° |
| 2026-05-07 17:47 | 48.78704 | 44.34379 | 424 ft | 12 kts | 68° |
| 2026-05-07 17:47 | 48.78737 | 44.34505 | 429 ft | 14 kts | 69° |
| 2026-05-07 17:47 | 48.78765 | 44.34611 | 426 ft | 9 kts | 62° |
| 2026-05-07 17:47 | 48.78813 | 44.34643 | 417 ft | 4 kts | 1° |
| 2026-05-07 17:48 | 48.78826 | 44.34642 | 425 ft | 0 kts | 349° |